Time;durP1;ratioP1;P1;durP2;ratioP2;P2;SDS_P1;SDS_P2;PMS_P1;PMS_P2;Temp;Humidity;BMP_temperature;BMP_pressure;BME280_temperature;BME280_humidity;BME280_pressure;Samples;Min_cycle;Max_cycle;Signal;HPM_P1;HPM_P2
2023/09/09 00:01:50;;;;;;;58.17;3.83;;;;;;;;;;4936881;29;20475;-73
2023/09/09 00:04:17;;;;;;;57.37;3.20;;;;;;;;;;4936839;29;20490;-72
2023/09/09 00:06:44;;;;;;;58.37;3.23;;;;;;;;;;4936280;29;20846;-73
2023/09/09 00:09:12;;;;;;;58.57;3.47;;;;;;;;;;4936648;29;20460;-72
2023/09/09 00:11:39;;;;;;;57.13;3.20;;;;;;;;;;4936592;29;21091;-73
2023/09/09 00:14:07;;;;;;;57.30;2.90;;;;;;;;;;4936903;29;20461;-72
2023/09/09 00:16:35;;;;;;;57.37;3.10;;;;;;;;;;4951279;29;20479;-72
2023/09/09 00:19:02;;;;;;;61.50;3.50;;;;;;;;;;4955649;28;20471;-72
2023/09/09 00:21:30;;;;;;;59.47;3.70;;;;;;;;;;4955565;28;20449;-73
2023/09/09 00:23:57;;;;;;;56.83;3.03;;;;;;;;;;4955788;28;20461;-73
2023/09/09 00:26:25;;;;;;;56.77;2.60;;;;;;;;;;4955214;28;20492;-72
2023/09/09 00:28:52;;;;;;;57.07;3.17;;;;;;;;;;4955473;28;20456;-72
2023/09/09 00:31:21;;;;;;;57.97;3.13;;;;;;;;;;4955463;28;20460;-72
2023/09/09 00:33:48;;;;;;;56.93;2.77;;;;;;;;;;4955397;28;20545;-73
2023/09/09 00:36:15;;;;;;;60.80;4.60;;;;;;;;;;4954873;28;20465;-72
2023/09/09 00:38:42;;;;;;;57.17;3.20;;;;;;;;;;4955234;28;20476;-71
2023/09/09 00:41:17;;;;;;;57.63;4.10;;;;;;;;;;4955326;28;20456;-72
2023/09/09 00:43:44;;;;;;;57.27;3.40;;;;;;;;;;4954917;28;20543;-72
2023/09/09 00:46:12;;;;;;;59.10;3.67;;;;;;;;;;4954604;28;20500;-72
2023/09/09 00:48:40;;;;;;;58.13;3.77;;;;;;;;;;4955410;28;20459;-72
2023/09/09 00:51:07;;;;;;;57.77;3.73;;;;;;;;;;4955233;28;20480;-71
2023/09/09 00:53:35;;;;;;;57.30;3.03;;;;;;;;;;4940377;28;20456;-72
2023/09/09 00:56:02;;;;;;;58.50;3.30;;;;;;;;;;4935255;29;20965;-72
2023/09/09 00:58:31;;;;;;;57.90;4.10;;;;;;;;;;4935961;29;20449;-72
2023/09/09 01:00:58;;;;;;;57.40;3.83;;;;;;;;;;4935781;29;20604;-72
2023/09/09 01:03:26;;;;;;;58.50;3.30;;;;;;;;;;4936004;29;20955;-72
2023/09/09 01:05:56;;;;;;;56.87;2.80;;;;;;;;;;4935399;29;20499;-70
2023/09/09 01:08:26;;;;;;;59.93;4.23;;;;;;;;;;4949048;29;20461;-71
2023/09/09 01:10:53;;;;;;;57.20;3.37;;;;;;;;;;4954754;28;20464;-72
2023/09/09 01:13:20;;;;;;;57.07;2.70;;;;;;;;;;4954720;28;20457;-72
2023/09/09 01:15:47;;;;;;;58.80;3.63;;;;;;;;;;4954140;28;20457;-72
2023/09/09 01:18:15;;;;;;;57.00;2.97;;;;;;;;;;4954123;28;20834;-72
2023/09/09 01:20:45;;;;;;;57.40;3.10;;;;;;;;;;4946724;28;20581;-72
2023/09/09 01:23:13;;;;;;;57.00;2.70;;;;;;;;;;4954379;28;20452;-71
2023/09/09 01:25:40;;;;;;;57.20;2.90;;;;;;;;;;4938372;28;20497;-72
2023/09/09 01:28:07;;;;;;;57.47;3.43;;;;;;;;;;4935194;29;20505;-71
2023/09/09 01:30:34;;;;;;;59.97;3.97;;;;;;;;;;4935256;29;20454;-72
2023/09/09 01:33:02;;;;;;;59.50;4.50;;;;;;;;;;4935138;29;20452;-72
2023/09/09 01:35:29;;;;;;;57.30;3.07;;;;;;;;;;4934650;29;20512;-72
2023/09/09 01:41:02;;;;;;;57.37;3.50;;;;;;;;;;4953055;29;20475;-73
2023/09/09 01:43:29;;;;;;;58.77;4.00;;;;;;;;;;4952983;28;20463;-72
2023/09/09 01:45:56;;;;;;;57.93;3.40;;;;;;;;;;4937585;28;20500;-72
2023/09/09 01:48:23;;;;;;;57.27;3.47;;;;;;;;;;4941033;28;20910;-73
2023/09/09 01:50:50;;;;;;;59.00;4.57;;;;;;;;;;4949752;29;20468;-72
2023/09/09 01:53:17;;;;;;;57.40;3.60;;;;;;;;;;4942863;29;20450;-72
2023/09/09 01:55:44;;;;;;;57.50;3.40;;;;;;;;;;4942091;29;20452;-72
2023/09/09 01:58:12;;;;;;;57.70;3.20;;;;;;;;;;4934634;29;20934;-72
2023/09/09 02:00:39;;;;;;;57.10;2.90;;;;;;;;;;4951215;29;20657;-72
2023/09/09 02:03:07;;;;;;;57.07;3.13;;;;;;;;;;4945623;28;20449;-72
2023/09/09 02:05:34;;;;;;;58.07;3.60;;;;;;;;;;4945476;28;20526;-72
2023/09/09 02:08:01;;;;;;;57.00;3.33;;;;;;;;;;4945720;28;20457;-72
2023/09/09 02:10:28;;;;;;;59.10;4.17;;;;;;;;;;4940138;28;20964;-71
2023/09/09 02:12:55;;;;;;;58.17;4.27;;;;;;;;;;4934453;29;20445;-72
2023/09/09 02:15:23;;;;;;;57.10;3.17;;;;;;;;;;4934282;29;20469;-70
2023/09/09 02:17:50;;;;;;;58.70;3.77;;;;;;;;;;4934299;29;20566;-72
2023/09/09 02:20:18;;;;;;;57.50;3.23;;;;;;;;;;4934372;29;20446;-72
2023/09/09 02:22:45;;;;;;;57.83;3.93;;;;;;;;;;4934369;29;20450;-72
2023/09/09 02:25:12;;;;;;;58.20;3.33;;;;;;;;;;4946204;29;20492;-72
2023/09/09 02:27:39;;;;;;;57.10;2.90;;;;;;;;;;4953242;28;20465;-71
2023/09/09 02:30:07;;;;;;;58.00;3.40;;;;;;;;;;4953239;28;20805;-71
2023/09/09 02:32:35;;;;;;;57.43;3.27;;;;;;;;;;4953574;28;20560;-72
2023/09/09 02:35:03;;;;;;;58.40;3.80;;;;;;;;;;4953148;28;20845;-71
2023/09/09 02:37:30;;;;;;;57.23;3.43;;;;;;;;;;4952915;28;20475;-70
2023/09/09 02:39:57;;;;;;;57.23;3.97;;;;;;;;;;4952973;28;20491;-72
2023/09/09 02:42:25;;;;;;;57.40;3.40;;;;;;;;;;4953303;28;20512;-70
2023/09/09 02:44:52;;;;;;;57.60;4.00;;;;;;;;;;4952845;28;20448;-72
2023/09/09 02:47:19;;;;;;;58.03;3.83;;;;;;;;;;4952942;28;20464;-71
2023/09/09 02:49:49;;;;;;;57.60;3.20;;;;;;;;;;4953224;28;20531;-72
2023/09/09 02:52:17;;;;;;;57.50;3.60;;;;;;;;;;4953450;28;20536;-71
2023/09/09 02:54:44;;;;;;;57.70;3.40;;;;;;;;;;4952608;28;20453;-71
2023/09/09 02:57:11;;;;;;;57.77;3.57;;;;;;;;;;4952226;28;20465;-71
2023/09/09 02:59:38;;;;;;;58.07;3.60;;;;;;;;;;4952951;28;20454;-72
2023/09/09 03:02:05;;;;;;;57.50;3.53;;;;;;;;;;4952992;28;20457;-72
2023/09/09 03:04:32;;;;;;;58.27;4.23;;;;;;;;;;4952868;28;20472;-73
2023/09/09 03:07:01;;;;;;;57.30;3.37;;;;;;;;;;4952526;28;20579;-73
2023/09/09 03:09:30;;;;;;;57.40;3.23;;;;;;;;;;4952741;28;20556;-73
2023/09/09 03:11:57;;;;;;;56.87;3.00;;;;;;;;;;4952704;29;20457;-72
2023/09/09 03:14:24;;;;;;;57.67;3.33;;;;;;;;;;4953177;28;20491;-73
2023/09/09 03:16:51;;;;;;;57.30;2.97;;;;;;;;;;4952213;28;20464;-71
2023/09/09 03:19:18;;;;;;;57.30;3.27;;;;;;;;;;4952854;28;20462;-72
2023/09/09 03:21:45;;;;;;;57.60;4.20;;;;;;;;;;4952828;28;20459;-71
2023/09/09 03:24:14;;;;;;;57.70;3.13;;;;;;;;;;4952434;28;20958;-71
2023/09/09 03:26:41;;;;;;;58.40;4.73;;;;;;;;;;4952232;28;20551;-71
2023/09/09 03:29:08;;;;;;;58.50;3.90;;;;;;;;;;4952751;28;20460;-72
2023/09/09 03:31:35;;;;;;;57.70;3.60;;;;;;;;;;4952959;28;20921;-72
2023/09/09 03:34:02;;;;;;;57.73;2.80;;;;;;;;;;4952579;28;20463;-72
2023/09/09 03:36:30;;;;;;;58.80;3.63;;;;;;;;;;4952130;28;20465;-72
2023/09/09 03:39:01;;;;;;;57.10;2.80;;;;;;;;;;4952519;28;20456;-72
2023/09/09 03:41:29;;;;;;;57.20;3.20;;;;;;;;;;4952568;28;20457;-72
2023/09/09 03:43:56;;;;;;;64.63;3.30;;;;;;;;;;4952433;28;20460;-72
2023/09/09 03:46:24;;;;;;;57.30;3.30;;;;;;;;;;4951863;28;20496;-72
2023/09/09 03:48:51;;;;;;;57.03;3.20;;;;;;;;;;4952376;28;20453;-72
2023/09/09 03:51:19;;;;;;;56.87;2.70;;;;;;;;;;4952418;28;20452;-73
2023/09/09 03:53:46;;;;;;;57.50;3.53;;;;;;;;;;4952698;28;20508;-71
2023/09/09 03:56:13;;;;;;;56.97;2.90;;;;;;;;;;4951952;28;20572;-73
2023/09/09 03:58:42;;;;;;;57.40;3.67;;;;;;;;;;4951653;28;20445;-71
2023/09/09 04:01:09;;;;;;;57.10;2.90;;;;;;;;;;4942178;28;20478;-72
2023/09/09 04:03:37;;;;;;;57.30;2.80;;;;;;;;;;4939388;29;20828;-72
2023/09/09 04:06:05;;;;;;;57.20;3.10;;;;;;;;;;4942686;28;20500;-72
2023/09/09 04:08:32;;;;;;;59.57;4.00;;;;;;;;;;4950323;29;20457;-72
2023/09/09 04:10:59;;;;;;;56.87;2.80;;;;;;;;;;4946804;28;20457;-72
2023/09/09 04:13:27;;;;;;;56.67;3.23;;;;;;;;;;4936620;29;20460;-72
2023/09/09 04:15:56;;;;;;;58.50;3.23;;;;;;;;;;4936103;29;20480;-70
2023/09/09 04:18:23;;;;;;;57.50;3.50;;;;;;;;;;4936588;29;20497;-72
2023/09/09 04:20:50;;;;;;;57.67;3.80;;;;;;;;;;4936244;29;20449;-71
2023/09/09 04:23:17;;;;;;;57.17;3.00;;;;;;;;;;4952522;28;20454;-71
2023/09/09 04:25:45;;;;;;;59.00;4.00;;;;;;;;;;4936072;29;20499;-70
2023/09/09 04:28:12;;;;;;;57.00;3.03;;;;;;;;;;4936333;29;20453;-71
2023/09/09 04:30:39;;;;;;;56.97;3.33;;;;;;;;;;4936189;29;20458;-71
2023/09/09 04:33:11;;;;;;;60.77;3.53;;;;;;;;;;4936097;29;20449;-71
2023/09/09 04:35:38;;;;;;;57.20;3.10;;;;;;;;;;4949655;29;20897;-71
2023/09/09 04:38:05;;;;;;;58.13;3.63;;;;;;;;;;4955160;28;20464;-71
2023/09/09 04:40:32;;;;;;;58.57;4.07;;;;;;;;;;4955277;28;20460;-71
2023/09/09 04:42:59;;;;;;;57.90;3.57;;;;;;;;;;4955190;28;20825;-73
2023/09/09 04:45:26;;;;;;;57.20;3.33;;;;;;;;;;4954636;28;20484;-71
2023/09/09 04:47:54;;;;;;;58.30;3.60;;;;;;;;;;4955009;28;20460;-71
2023/09/09 04:50:22;;;;;;;57.30;3.70;;;;;;;;;;4936072;29;20442;-70
2023/09/09 04:52:49;;;;;;;56.87;2.90;;;;;;;;;;4935909;29;20474;-70
2023/09/09 04:55:17;;;;;;;57.80;3.67;;;;;;;;;;4935725;29;20474;-71
2023/09/09 04:57:44;;;;;;;57.83;3.63;;;;;;;;;;4935480;29;20461;-71
2023/09/09 05:00:12;;;;;;;57.20;3.30;;;;;;;;;;4935542;29;20981;-70
2023/09/09 05:02:40;;;;;;;56.87;3.43;;;;;;;;;;4935814;29;20456;-70
2023/09/09 05:05:07;;;;;;;57.23;3.77;;;;;;;;;;4935286;29;20456;-71
2023/09/09 05:07:37;;;;;;;57.77;4.07;;;;;;;;;;4935327;29;20872;-70
2023/09/09 05:10:05;;;;;;;57.20;3.23;;;;;;;;;;4935432;29;20456;-71
2023/09/09 05:12:32;;;;;;;57.33;4.20;;;;;;;;;;4935407;29;20453;-71
2023/09/09 05:14:59;;;;;;;57.17;3.10;;;;;;;;;;4935375;29;20933;-71
2023/09/09 05:17:26;;;;;;;57.47;3.90;;;;;;;;;;4934630;29;20469;-71
2023/09/09 05:19:54;;;;;;;56.67;2.90;;;;;;;;;;4935250;29;20496;-71
2023/09/09 05:22:21;;;;;;;57.37;3.50;;;;;;;;;;4935332;29;20460;-71
2023/09/09 05:24:49;;;;;;;60.50;4.17;;;;;;;;;;4935115;29;20457;-70
2023/09/09 05:27:17;;;;;;;57.17;3.17;;;;;;;;;;4934763;29;20499;-71
2023/09/09 05:29:44;;;;;;;57.50;3.60;;;;;;;;;;4935149;29;20565;-71
2023/09/09 05:32:11;;;;;;;57.70;3.57;;;;;;;;;;4935286;29;20465;-71
2023/09/09 05:34:38;;;;;;;56.87;3.00;;;;;;;;;;4935119;29;20842;-71
2023/09/09 05:37:05;;;;;;;57.17;3.00;;;;;;;;;;4934696;29;20470;-71
2023/09/09 05:39:32;;;;;;;58.00;3.30;;;;;;;;;;4934919;29;20470;-70
2023/09/09 05:42:01;;;;;;;57.00;3.10;;;;;;;;;;4934675;29;20453;-71
2023/09/09 05:44:28;;;;;;;57.30;2.50;;;;;;;;;;4935302;29;20453;-71
2023/09/09 05:46:55;;;;;;;58.63;3.23;;;;;;;;;;4934477;29;20570;-71
2023/09/09 05:49:22;;;;;;;58.13;4.07;;;;;;;;;;4934792;29;20450;-70
2023/09/09 05:51:49;;;;;;;57.97;4.27;;;;;;;;;;4934870;29;20553;-71
2023/09/09 05:54:16;;;;;;;59.30;4.33;;;;;;;;;;4934532;29;20461;-70
2023/09/09 05:56:44;;;;;;;57.70;3.43;;;;;;;;;;4934557;29;20918;-70
2023/09/09 05:59:12;;;;;;;57.20;3.23;;;;;;;;;;4936600;29;20548;-71
2023/09/09 06:01:39;;;;;;;57.67;3.47;;;;;;;;;;4940483;29;20457;-71
2023/09/09 06:04:06;;;;;;;57.47;3.40;;;;;;;;;;4937669;28;20862;-69
2023/09/09 06:06:34;;;;;;;56.97;3.00;;;;;;;;;;4940538;28;20941;-71
2023/09/09 06:09:01;;;;;;;57.97;2.50;;;;;;;;;;4934149;29;20464;-70
2023/09/09 06:11:28;;;;;;;57.50;3.30;;;;;;;;;;4939818;29;20476;-71
2023/09/09 06:13:55;;;;;;;58.13;4.33;;;;;;;;;;4938095;28;20464;-70
2023/09/09 06:16:23;;;;;;;58.50;4.50;;;;;;;;;;4952882;29;20576;-70
2023/09/09 06:18:50;;;;;;;57.50;3.57;;;;;;;;;;4953334;28;20459;-70
2023/09/09 06:21:17;;;;;;;60.10;5.87;;;;;;;;;;4953263;28;20929;-70
2023/09/09 06:23:45;;;;;;;56.80;2.90;;;;;;;;;;4953410;28;20821;-71
2023/09/09 06:26:12;;;;;;;59.27;3.23;;;;;;;;;;4935093;28;20994;-71
2023/09/09 06:28:39;;;;;;;58.17;3.80;;;;;;;;;;4933998;29;21089;-71
2023/09/09 06:31:07;;;;;;;57.00;3.50;;;;;;;;;;4934215;29;20829;-71
2023/09/09 06:33:35;;;;;;;57.40;3.53;;;;;;;;;;4934526;29;20544;-71
2023/09/09 06:36:03;;;;;;;58.67;4.57;;;;;;;;;;4933596;29;20854;-71
2023/09/09 06:38:30;;;;;;;56.80;3.07;;;;;;;;;;4938129;29;20460;-71
2023/09/09 06:40:57;;;;;;;56.60;2.80;;;;;;;;;;4953088;28;20453;-70
2023/09/09 06:43:24;;;;;;;58.07;3.03;;;;;;;;;;4952982;28;21019;-71
2023/09/09 06:45:52;;;;;;;57.80;2.90;;;;;;;;;;4952807;28;20471;-70
2023/09/09 06:48:21;;;;;;;57.20;3.00;;;;;;;;;;4952982;28;20503;-69
2023/09/09 06:50:49;;;;;;;57.10;3.20;;;;;;;;;;4952879;28;20449;-71
2023/09/09 06:53:17;;;;;;;56.90;3.20;;;;;;;;;;4953072;28;20810;-71
2023/09/09 06:55:45;;;;;;;57.63;3.30;;;;;;;;;;4952799;28;20539;-71
2023/09/09 06:58:13;;;;;;;58.10;2.90;;;;;;;;;;4952861;28;20559;-72
2023/09/09 07:00:41;;;;;;;56.60;3.00;;;;;;;;;;4952913;28;20946;-72
2023/09/09 07:03:08;;;;;;;57.90;4.27;;;;;;;;;;4951505;28;20449;-72
2023/09/09 07:05:35;;;;;;;57.77;3.23;;;;;;;;;;4946036;29;20459;-72
2023/09/09 07:08:04;;;;;;;57.77;3.63;;;;;;;;;;4952781;28;20496;-71
2023/09/09 07:10:31;;;;;;;57.93;3.17;;;;;;;;;;4952693;28;20459;-72
2023/09/09 07:12:58;;;;;;;57.40;3.70;;;;;;;;;;4952841;28;20453;-72
2023/09/09 07:15:25;;;;;;;56.83;3.17;;;;;;;;;;4952742;28;20459;-72
2023/09/09 07:17:52;;;;;;;58.17;3.83;;;;;;;;;;4952424;28;20449;-72
2023/09/09 07:20:19;;;;;;;56.60;2.63;;;;;;;;;;4952725;28;20527;-72
2023/09/09 07:22:47;;;;;;;57.43;3.97;;;;;;;;;;4952725;28;20445;-72
2023/09/09 07:25:15;;;;;;;59.27;3.97;;;;;;;;;;4952473;28;20460;-72
2023/09/09 07:27:42;;;;;;;56.60;3.17;;;;;;;;;;4952178;28;20535;-71
2023/09/09 07:30:10;;;;;;;56.90;3.20;;;;;;;;;;4952633;28;20448;-74
2023/09/09 07:32:37;;;;;;;57.33;3.10;;;;;;;;;;4952656;28;20488;-73
2023/09/09 07:35:05;;;;;;;59.47;4.40;;;;;;;;;;4952358;28;20457;-72
2023/09/09 07:37:32;;;;;;;57.13;3.50;;;;;;;;;;4952492;28;20479;-72
2023/09/09 07:39:59;;;;;;;58.03;2.90;;;;;;;;;;4952469;28;20464;-72
2023/09/09 07:42:28;;;;;;;57.07;2.53;;;;;;;;;;4955359;28;20456;-70
2023/09/09 07:44:55;;;;;;;57.30;3.47;;;;;;;;;;4956148;28;20875;-71
2023/09/09 07:47:22;;;;;;;57.00;2.77;;;;;;;;;;4956071;28;20863;-72
2023/09/09 07:49:50;;;;;;;58.60;3.87;;;;;;;;;;4956315;28;20474;-73
2023/09/09 07:52:17;;;;;;;57.30;2.73;;;;;;;;;;4956279;28;20457;-73
2023/09/09 07:54:44;;;;;;;57.03;3.17;;;;;;;;;;4956187;28;20457;-73
2023/09/09 07:57:12;;;;;;;61.60;4.63;;;;;;;;;;4955978;28;20843;-73
2023/09/09 07:59:41;;;;;;;58.70;3.60;;;;;;;;;;4956122;28;20456;-70
2023/09/09 08:02:08;;;;;;;57.77;3.37;;;;;;;;;;4955934;28;20459;-71
2023/09/09 08:04:35;;;;;;;56.97;3.07;;;;;;;;;;4956119;28;20815;-72
2023/09/09 08:07:02;;;;;;;57.77;3.37;;;;;;;;;;4955496;28;20932;-72
2023/09/09 08:09:29;;;;;;;59.63;3.30;;;;;;;;;;4955934;28;21012;-71
2023/09/09 08:11:57;;;;;;;57.07;3.20;;;;;;;;;;4955654;28;20449;-72
2023/09/09 08:14:24;;;;;;;56.63;2.87;;;;;;;;;;4955909;28;20457;-71
2023/09/09 08:16:54;;;;;;;58.27;3.73;;;;;;;;;;4941294;28;20472;-73
2023/09/09 08:19:22;;;;;;;59.80;4.30;;;;;;;;;;4936697;29;20902;-71
2023/09/09 08:21:49;;;;;;;56.87;2.90;;;;;;;;;;4936628;29;20457;-71
2023/09/09 08:24:16;;;;;;;56.83;3.20;;;;;;;;;;4936508;29;20530;-71
2023/09/09 08:26:43;;;;;;;57.77;3.83;;;;;;;;;;4936272;29;20845;-71
2023/09/09 08:29:09;;;;;;;57.83;3.47;;;;;;;;;;4936986;29;20452;-71
2023/09/09 08:31:36;;;;;;;58.17;3.60;;;;;;;;;;4936387;29;20807;-71
2023/09/09 08:34:05;;;;;;;57.23;2.83;;;;;;;;;;4936328;29;20464;-70
2023/09/09 08:36:32;;;;;;;57.60;3.33;;;;;;;;;;4936058;29;20905;-71
2023/09/09 08:38:59;;;;;;;57.90;3.83;;;;;;;;;;4943297;29;20463;-72
2023/09/09 08:41:30;;;;;;;57.07;2.93;;;;;;;;;;4955368;28;20455;-72
2023/09/09 08:44:00;;;;;;;57.73;3.07;;;;;;;;;;4955601;28;20456;-71
2023/09/09 08:46:27;;;;;;;57.90;3.63;;;;;;;;;;4954929;28;20472;-71
2023/09/09 08:48:54;;;;;;;58.57;4.37;;;;;;;;;;4955398;28;20868;-73
2023/09/09 08:51:26;;;;;;;57.50;3.27;;;;;;;;;;4955133;28;20459;-73
2023/09/09 08:53:53;;;;;;;56.60;2.50;;;;;;;;;;4954092;28;20933;-73
2023/09/09 08:56:21;;;;;;;57.73;3.00;;;;;;;;;;4955070;28;20480;-73
2023/09/09 08:58:48;;;;;;;57.27;3.10;;;;;;;;;;4955152;28;20871;-72
2023/09/09 09:01:16;;;;;;;57.57;3.27;;;;;;;;;;4954952;28;20467;-71
2023/09/09 09:03:44;;;;;;;56.73;2.90;;;;;;;;;;4955005;28;20992;-72
2023/09/09 09:06:11;;;;;;;57.77;3.30;;;;;;;;;;4954667;28;20480;-72
2023/09/09 09:08:40;;;;;;;56.47;2.53;;;;;;;;;;4954977;28;20725;-72
2023/09/09 09:11:07;;;;;;;56.70;3.17;;;;;;;;;;4954947;28;20539;-71
2023/09/09 09:13:35;;;;;;;59.30;3.50;;;;;;;;;;4955343;28;20449;-72
2023/09/09 09:16:02;;;;;;;57.40;3.27;;;;;;;;;;4954416;28;20473;-73
2023/09/09 09:18:29;;;;;;;57.70;3.10;;;;;;;;;;4954471;28;20444;-73
2023/09/09 09:21:06;;;;;;;56.83;2.77;;;;;;;;;;4954813;28;20453;-72
2023/09/09 09:23:33;;;;;;;57.90;4.70;;;;;;;;;;4954611;28;20445;-73
2023/09/09 09:26:02;;;;;;;57.40;3.30;;;;;;;;;;4954219;28;20757;-73
2023/09/09 09:28:29;;;;;;;57.67;3.43;;;;;;;;;;4941128;28;20491;-73
2023/09/09 09:30:57;;;;;;;56.60;2.90;;;;;;;;;;4949370;29;20516;-70
2023/09/09 09:33:24;;;;;;;56.97;3.10;;;;;;;;;;4944666;28;20458;-72
2023/09/09 09:35:52;;;;;;;56.90;3.00;;;;;;;;;;4935808;29;20875;-74
2023/09/09 09:38:19;;;;;;;57.50;3.60;;;;;;;;;;4937319;29;20922;-71
2023/09/09 09:40:46;;;;;;;58.27;4.00;;;;;;;;;;4955813;28;20465;-71
2023/09/09 09:43:23;;;;;;;56.30;2.43;;;;;;;;;;4951139;28;20479;-71
2023/09/09 09:45:50;;;;;;;56.07;2.70;;;;;;;;;;4949678;28;21214;-72
2023/09/09 09:48:27;;;;;;;57.40;3.50;;;;;;;;;;4952932;29;20499;-72
2023/09/09 09:50:54;;;;;;;57.10;2.70;;;;;;;;;;4935352;29;20533;-73
2023/09/09 09:53:22;;;;;;;58.00;4.43;;;;;;;;;;4935522;29;20456;-72
2023/09/09 09:55:52;;;;;;;56.80;3.10;;;;;;;;;;4936194;29;20477;-72
2023/09/09 09:58:23;;;;;;;57.10;2.80;;;;;;;;;;4937978;29;20445;-72
2023/09/09 10:00:51;;;;;;;57.10;3.10;;;;;;;;;;4938951;29;20826;-71
2023/09/09 10:03:20;;;;;;;59.27;3.23;;;;;;;;;;4935447;29;20456;-70
2023/09/09 10:05:50;;;;;;;56.07;3.17;;;;;;;;;;4935788;29;20998;-69
2023/09/09 10:08:21;;;;;;;57.10;3.23;;;;;;;;;;4935651;29;20548;-71
2023/09/09 10:10:50;;;;;;;56.27;2.93;;;;;;;;;;4939138;29;20525;-71
2023/09/09 10:13:20;;;;;;;55.70;2.50;;;;;;;;;;4939160;29;20545;-70
2023/09/09 10:15:50;;;;;;;55.50;2.63;;;;;;;;;;4938650;29;20469;-70
2023/09/09 10:18:18;;;;;;;55.87;2.97;;;;;;;;;;4944971;29;20549;-72
2023/09/09 10:20:45;;;;;;;56.60;3.30;;;;;;;;;;4945408;29;20529;-72
2023/09/09 10:23:13;;;;;;;56.07;3.13;;;;;;;;;;4938069;29;20540;-71
2023/09/09 10:25:42;;;;;;;56.07;2.60;;;;;;;;;;4937789;29;20457;-71
2023/09/09 10:28:10;;;;;;;55.53;3.03;;;;;;;;;;4934445;29;20500;-73
2023/09/09 10:30:38;;;;;;;55.70;2.70;;;;;;;;;;4936887;29;20442;-71
2023/09/09 10:33:07;;;;;;;55.10;2.23;;;;;;;;;;4936327;29;20938;-70
2023/09/09 10:35:35;;;;;;;55.40;2.83;;;;;;;;;;4934163;29;20446;-72
2023/09/09 10:38:04;;;;;;;55.23;2.93;;;;;;;;;;4934011;29;20833;-72
2023/09/09 10:40:32;;;;;;;55.20;2.80;;;;;;;;;;4934253;29;20544;-74
2023/09/09 10:42:59;;;;;;;55.60;3.20;;;;;;;;;;4934169;29;20454;-73
2023/09/09 10:45:28;;;;;;;55.17;2.40;;;;;;;;;;4933691;29;20520;-72
2023/09/09 10:47:55;;;;;;;54.97;2.57;;;;;;;;;;4934010;29;20494;-73
2023/09/09 10:50:24;;;;;;;54.80;2.77;;;;;;;;;;4934180;29;20449;-72
2023/09/09 10:53:09;;;;;;;54.37;2.40;;;;;;;;;;4933831;29;21004;-73
2023/09/09 10:55:36;;;;;;;54.80;2.83;;;;;;;;;;4933437;29;20441;-73
2023/09/09 10:58:03;;;;;;;54.73;2.33;;;;;;;;;;4934017;29;20442;-73
2023/09/09 11:00:38;;;;;;;55.23;2.73;;;;;;;;;;4933741;29;20450;-71
2023/09/09 11:03:10;;;;;;;54.50;2.00;;;;;;;;;;4934154;29;20805;-73
2023/09/09 11:05:52;;;;;;;55.30;3.10;;;;;;;;;;4933354;28;20445;-73
2023/09/09 11:08:30;;;;;;;54.60;2.73;;;;;;;;;;4933176;29;20489;-73
2023/09/09 11:11:10;;;;;;;54.90;2.70;;;;;;;;;;4933790;29;20457;-73
2023/09/09 11:13:41;;;;;;;54.90;2.97;;;;;;;;;;4933720;29;20521;-72
2023/09/09 11:16:08;;;;;;;54.17;2.10;;;;;;;;;;4932735;29;20837;-72
2023/09/09 11:18:36;;;;;;;55.43;2.43;;;;;;;;;;4933483;29;20449;-72
2023/09/09 11:21:04;;;;;;;56.17;3.70;;;;;;;;;;4933529;29;20457;-71
2023/09/09 11:23:33;;;;;;;54.97;2.40;;;;;;;;;;4933453;29;20520;-71
2023/09/09 11:26:00;;;;;;;54.90;2.40;;;;;;;;;;4933290;29;20480;-73
2023/09/09 11:28:28;;;;;;;54.77;2.93;;;;;;;;;;4933515;29;20497;-73
2023/09/09 11:30:55;;;;;;;55.63;3.73;;;;;;;;;;4933508;29;20464;-73
2023/09/09 11:33:22;;;;;;;54.97;3.27;;;;;;;;;;4933364;29;20939;-73
2023/09/09 11:35:49;;;;;;;54.90;2.47;;;;;;;;;;4933296;29;20469;-72
2023/09/09 11:38:16;;;;;;;54.47;2.70;;;;;;;;;;4933146;29;20903;-73
2023/09/09 11:40:45;;;;;;;54.27;2.37;;;;;;;;;;4933608;29;20537;-72
2023/09/09 11:43:15;;;;;;;54.20;2.40;;;;;;;;;;4935395;29;20532;-72
2023/09/09 11:45:43;;;;;;;54.90;2.60;;;;;;;;;;4944609;29;20451;-73
2023/09/09 11:48:14;;;;;;;54.30;2.50;;;;;;;;;;4944981;28;20489;-72
2023/09/09 11:50:41;;;;;;;54.70;2.70;;;;;;;;;;4944600;29;20461;-72
2023/09/09 11:53:09;;;;;;;54.67;2.87;;;;;;;;;;4950500;28;20452;-72
2023/09/09 11:55:36;;;;;;;54.50;2.50;;;;;;;;;;4933498;28;20458;-72
2023/09/09 11:58:04;;;;;;;55.80;2.40;;;;;;;;;;4933333;29;20450;-73
2023/09/09 12:00:31;;;;;;;54.60;2.80;;;;;;;;;;4933282;29;20446;-71
2023/09/09 12:02:59;;;;;;;54.47;2.67;;;;;;;;;;4933297;29;20466;-72
2023/09/09 12:05:29;;;;;;;54.67;3.00;;;;;;;;;;4940699;29;20929;-72
2023/09/09 12:07:57;;;;;;;54.50;2.60;;;;;;;;;;4933607;29;20490;-72
2023/09/09 12:10:24;;;;;;;55.00;3.10;;;;;;;;;;4933024;29;20988;-72
2023/09/09 12:12:51;;;;;;;54.30;2.57;;;;;;;;;;4933368;29;20462;-73
2023/09/09 12:15:20;;;;;;;54.03;2.20;;;;;;;;;;4932759;29;20458;-72
2023/09/09 12:17:47;;;;;;;54.10;2.00;;;;;;;;;;4933031;29;21016;-72
2023/09/09 12:20:13;;;;;;;56.10;2.80;;;;;;;;;;4933063;29;20541;-72
2023/09/09 12:22:46;;;;;;;59.83;3.40;;;;;;;;;;4933126;29;20454;-72
2023/09/09 12:25:29;;;;;;;54.77;2.73;;;;;;;;;;4933025;29;20831;-73
2023/09/09 12:27:56;;;;;;;54.30;2.43;;;;;;;;;;4935357;29;20481;-71
2023/09/09 12:30:34;;;;;;;54.60;2.40;;;;;;;;;;4936595;29;20800;-73
2023/09/09 12:33:04;;;;;;;54.50;2.30;;;;;;;;;;4936420;29;20449;-73
2023/09/09 12:35:33;;;;;;;54.57;2.83;;;;;;;;;;4935940;29;20457;-73
2023/09/09 12:38:00;;;;;;;54.60;2.50;;;;;;;;;;4950079;29;20472;-72
2023/09/09 12:40:27;;;;;;;54.40;2.70;;;;;;;;;;4955269;28;20459;-72
2023/09/09 12:42:56;;;;;;;55.20;3.07;;;;;;;;;;4955523;28;20922;-72
2023/09/09 12:45:25;;;;;;;54.20;2.40;;;;;;;;;;4955361;28;20452;-73
2023/09/09 12:47:53;;;;;;;54.27;2.57;;;;;;;;;;4955409;28;20481;-72
2023/09/09 12:50:20;;;;;;;54.73;2.67;;;;;;;;;;4955112;28;20467;-72
2023/09/09 12:52:47;;;;;;;53.43;2.20;;;;;;;;;;4955179;28;20458;-72
2023/09/09 12:55:15;;;;;;;53.67;2.33;;;;;;;;;;4946998;28;20460;-72
2023/09/09 12:57:42;;;;;;;57.93;3.00;;;;;;;;;;4955133;28;20479;-72
2023/09/09 13:00:10;;;;;;;54.30;2.77;;;;;;;;;;4955347;28;20551;-72
2023/09/09 13:02:37;;;;;;;55.17;3.17;;;;;;;;;;4955023;28;20462;-72
2023/09/09 13:05:06;;;;;;;54.00;2.60;;;;;;;;;;4954938;28;20798;-73
2023/09/09 13:07:33;;;;;;;54.20;2.60;;;;;;;;;;4954662;28;20478;-71
2023/09/09 13:10:00;;;;;;;54.23;2.73;;;;;;;;;;4954576;28;21002;-72
2023/09/09 13:12:27;;;;;;;55.50;3.00;;;;;;;;;;4954704;28;21034;-72
2023/09/09 13:14:56;;;;;;;54.50;3.23;;;;;;;;;;4955120;28;20461;-73
2023/09/09 13:17:23;;;;;;;54.67;2.63;;;;;;;;;;4954625;28;20487;-72
2023/09/09 13:19:50;;;;;;;55.80;2.93;;;;;;;;;;4954762;28;20455;-72
2023/09/09 13:22:19;;;;;;;53.90;2.50;;;;;;;;;;4954565;28;21206;-75
2023/09/09 13:24:46;;;;;;;54.07;2.33;;;;;;;;;;4954565;28;21010;-72
2023/09/09 13:27:13;;;;;;;53.93;2.40;;;;;;;;;;4954642;28;20470;-73
2023/09/09 13:29:40;;;;;;;54.27;3.43;;;;;;;;;;4954404;28;20514;-73
2023/09/09 13:32:07;;;;;;;53.20;2.40;;;;;;;;;;4954948;28;20459;-72
2023/09/09 13:34:34;;;;;;;54.13;2.80;;;;;;;;;;4954376;28;20639;-73
2023/09/09 13:37:02;;;;;;;54.13;3.17;;;;;;;;;;4953953;28;20472;-72
2023/09/09 13:39:31;;;;;;;53.63;2.40;;;;;;;;;;4953489;28;20469;-73
2023/09/09 13:41:58;;;;;;;55.17;4.30;;;;;;;;;;4954412;28;20915;-72
2023/09/09 13:44:25;;;;;;;54.57;2.90;;;;;;;;;;4945154;28;20481;-73
2023/09/09 13:46:52;;;;;;;54.57;2.90;;;;;;;;;;4942460;29;20512;-72
2023/09/09 13:49:19;;;;;;;54.47;2.80;;;;;;;;;;4950642;29;20495;-73
2023/09/09 13:51:46;;;;;;;54.10;2.60;;;;;;;;;;4953091;29;20538;-72
2023/09/09 13:54:13;;;;;;;55.07;3.33;;;;;;;;;;4946243;28;20537;-72
2023/09/09 13:56:42;;;;;;;58.10;2.77;;;;;;;;;;4935213;28;20480;-72
2023/09/09 13:59:09;;;;;;;54.30;2.30;;;;;;;;;;4934943;29;20452;-72
2023/09/09 14:01:36;;;;;;;54.47;2.53;;;;;;;;;;4935044;29;20900;-72
2023/09/09 14:04:03;;;;;;;55.07;2.67;;;;;;;;;;4934970;29;20446;-73
2023/09/09 14:06:30;;;;;;;54.17;2.53;;;;;;;;;;4934372;29;20476;-73
2023/09/09 14:08:58;;;;;;;53.97;2.20;;;;;;;;;;4934834;29;20511;-72
2023/09/09 14:11:25;;;;;;;54.20;2.50;;;;;;;;;;4934600;29;20505;-72
2023/09/09 14:13:53;;;;;;;55.00;2.90;;;;;;;;;;4934944;29;20456;-72
2023/09/09 14:16:20;;;;;;;54.30;2.90;;;;;;;;;;4934058;29;20480;-72
2023/09/09 14:18:47;;;;;;;54.90;2.67;;;;;;;;;;4934537;29;20450;-73
2023/09/09 14:21:17;;;;;;;56.20;2.77;;;;;;;;;;4934495;29;20456;-72
2023/09/09 14:23:44;;;;;;;55.03;2.90;;;;;;;;;;4934134;29;20536;-72
2023/09/09 14:26:11;;;;;;;55.63;2.60;;;;;;;;;;4933880;29;21001;-72
2023/09/09 14:28:38;;;;;;;54.83;2.93;;;;;;;;;;4934457;29;20446;-71
2023/09/09 14:31:07;;;;;;;54.67;2.77;;;;;;;;;;4934060;29;20457;-72
2023/09/09 14:33:34;;;;;;;54.27;2.37;;;;;;;;;;4934298;29;20484;-72
2023/09/09 14:36:01;;;;;;;55.00;2.53;;;;;;;;;;4933925;29;20477;-72
2023/09/09 14:38:28;;;;;;;54.57;2.90;;;;;;;;;;4934934;29;20465;-72